createdAt,value
2018-11-13T00:01:01.325Z,10.47
2018-11-13T00:03:33.023Z,10.00
2018-11-13T00:06:22.906Z,13.57
2018-11-13T00:09:10.029Z,10.73
2018-11-13T00:11:58.236Z,8.83
2018-11-13T00:14:46.001Z,9.67
2018-11-13T00:17:31.194Z,8.47
2018-11-13T00:20:27.858Z,8.47
2018-11-13T00:23:14.496Z,9.97
2018-11-13T00:25:59.162Z,8.20
2018-11-13T00:28:43.906Z,8.40
2018-11-13T00:31:28.768Z,8.30
2018-11-13T00:34:18.085Z,8.33
2018-11-13T00:39:54.489Z,8.93
2018-11-13T00:42:40.204Z,8.30
2018-11-13T00:45:30.219Z,10.00
2018-11-13T00:48:21.128Z,10.20
2018-11-13T00:51:09.175Z,10.90
2018-11-13T00:54:02.514Z,9.17
2018-11-13T00:56:51.381Z,11.93
2018-11-13T00:59:40.643Z,10.97
2018-11-13T01:05:24.229Z,8.20
2018-11-13T01:08:14.916Z,10.20
2018-11-13T01:11:07.589Z,10.50
2018-11-13T01:13:58.693Z,8.40
2018-11-13T01:16:52.158Z,8.90
2018-11-13T01:19:31.605Z,9.50
2018-11-13T01:22:18.417Z,9.07
2018-11-13T01:25:03.814Z,10.27
2018-11-13T01:27:57.501Z,9.30
2018-11-13T01:30:45.073Z,10.33
2018-11-13T01:33:35.250Z,9.97
2018-11-13T01:36:18.365Z,10.00
2018-11-13T01:39:12.931Z,10.03
2018-11-13T01:42:02.045Z,11.27
2018-11-13T01:44:59.511Z,8.77
2018-11-13T01:47:51.458Z,9.23
2018-11-13T01:50:46.790Z,9.77
2018-11-13T01:53:33.556Z,11.60
2018-11-13T01:56:20.321Z,11.57
2018-11-13T01:59:05.099Z,11.23
2018-11-13T02:01:58.676Z,9.73
2018-11-13T02:04:29.140Z,11.10
2018-11-13T02:07:17.459Z,9.53
2018-11-13T02:10:06.104Z,13.93
2018-11-13T02:12:50.767Z,11.30
2018-11-13T02:15:38.342Z,15.27
2018-11-13T02:18:25.575Z,14.77
2018-11-13T02:21:17.483Z,14.53
2018-11-13T02:24:05.900Z,15.10
2018-11-13T02:26:53.885Z,15.20
2018-11-13T02:29:40.579Z,14.33
2018-11-13T02:32:27.494Z,14.90
2018-11-13T02:35:16.172Z,11.47
2018-11-13T02:38:04.327Z,14.13
2018-11-13T02:40:52.418Z,12.20
2018-11-13T02:43:44.283Z,14.53
2018-11-13T02:46:29.549Z,16.70
2018-11-13T02:49:14.062Z,13.60
2018-11-13T02:51:59.027Z,13.23
2018-11-13T02:54:45.868Z,14.40
2018-11-13T02:57:15.477Z,12.73
2018-11-13T03:00:03.426Z,13.63
2018-11-13T03:02:54.313Z,11.33
2018-11-13T03:05:26.033Z,16.00
2018-11-13T03:08:07.767Z,15.37
2018-11-13T03:10:50.411Z,16.87
2018-11-13T03:16:18.593Z,32.60
2018-11-13T03:19:04.407Z,24.53
2018-11-13T03:21:50.874Z,32.17
2018-11-13T03:24:38.064Z,28.73
2018-11-13T03:27:26.329Z,22.73
2018-11-13T03:30:13.997Z,17.37
2018-11-13T03:33:01.689Z,17.17
2018-11-13T03:35:45.223Z,14.43
2018-11-13T03:38:34.764Z,15.37
2018-11-13T03:41:19.257Z,12.10
2018-11-13T03:44:06.520Z,13.93
2018-11-13T03:46:53.662Z,11.13
2018-11-13T03:49:40.702Z,10.97
2018-11-13T03:52:24.926Z,11.70
2018-11-13T03:55:13.183Z,10.03
2018-11-13T03:58:01.471Z,11.57
2018-11-13T04:00:53.187Z,11.53
2018-11-13T04:03:25.551Z,10.10
2018-11-13T04:06:10.520Z,13.40
2018-11-13T04:08:56.234Z,10.47
2018-11-13T04:11:45.800Z,12.43
2018-11-13T04:14:35.067Z,11.30
2018-11-13T04:17:20.983Z,11.90
2018-11-13T04:20:09.120Z,12.83
2018-11-13T04:22:57.413Z,12.73
2018-11-13T04:25:47.295Z,13.07
2018-11-13T04:28:39.816Z,12.23
2018-11-13T04:31:24.381Z,12.83
2018-11-13T04:34:12.471Z,12.87
2018-11-13T04:37:01.862Z,11.53
2018-11-13T04:39:48.501Z,14.60
2018-11-13T04:42:41.316Z,11.07
2018-11-13T04:45:27.332Z,12.50
2018-11-13T04:48:12.338Z,12.80
2018-11-13T04:51:00.194Z,14.57
2018-11-13T04:53:52.084Z,10.70
2018-11-13T04:56:39.591Z,10.57
2018-11-13T04:59:24.142Z,12.77
2018-11-13T05:02:10.449Z,13.73
2018-11-13T05:04:57.338Z,14.53
2018-11-13T05:07:47.978Z,13.43
2018-11-13T05:10:44.443Z,12.03
2018-11-13T05:19:10.847Z,12.87
2018-11-13T05:22:02.478Z,11.30
2018-11-13T05:24:44.621Z,15.73
2018-11-13T05:30:28.348Z,21.73
2018-11-13T05:33:19.548Z,12.87
2018-11-13T05:36:07.985Z,17.10
2018-11-13T05:38:55.420Z,13.53
2018-11-13T05:41:36.477Z,19.80
2018-11-13T05:44:21.402Z,15.57
2018-11-13T05:47:05.261Z,15.03
2018-11-13T05:49:52.082Z,13.73
2018-11-13T05:52:41.347Z,15.80
2018-11-13T05:55:29.886Z,15.70
2018-11-13T05:58:18.706Z,15.23
2018-11-13T06:01:05.065Z,15.83
2018-11-13T06:03:36.912Z,20.30
2018-11-13T06:06:26.377Z,15.93
2018-11-13T06:09:12.512Z,15.33
2018-11-13T06:12:02.403Z,14.20
2018-11-13T06:14:46.249Z,14.87
2018-11-13T06:17:36.235Z,17.23
2018-11-13T06:20:16.554Z,14.60
2018-11-13T06:25:52.792Z,17.60
2018-11-13T06:28:44.749Z,14.77
2018-11-13T06:31:29.462Z,14.63
2018-11-13T06:34:24.064Z,19.90
2018-11-13T06:37:10.183Z,17.60
2018-11-13T06:40:02.138Z,17.77
2018-11-13T06:42:51.049Z,19.40
2018-11-13T06:45:40.622Z,18.20
2018-11-13T06:48:20.225Z,20.80
2018-11-13T06:51:09.640Z,19.13
2018-11-13T06:53:59.909Z,17.13
2018-11-13T06:56:47.971Z,19.77
2018-11-13T06:59:32.588Z,23.10
2018-11-13T07:02:21.083Z,22.83
2018-11-13T07:04:52.266Z,20.37
2018-11-13T07:07:41.219Z,18.57
2018-11-13T07:10:26.991Z,17.90
2018-11-13T07:13:05.874Z,17.17
2018-11-13T07:15:54.821Z,18.47
2018-11-13T07:18:48.863Z,17.73
2018-11-13T07:21:38.534Z,21.33
2018-11-13T07:24:30.549Z,24.57
2018-11-13T07:27:13.170Z,18.23
2018-11-13T07:30:03.812Z,21.03
2018-11-13T07:32:50.458Z,21.13
2018-11-13T07:35:39.724Z,20.77
2018-11-13T07:38:23.862Z,18.30
2018-11-13T07:41:09.635Z,20.63
2018-11-13T07:43:54.549Z,19.73
2018-11-13T07:46:42.532Z,22.03
2018-11-13T07:49:25.161Z,25.97
2018-11-13T07:52:10.799Z,16.33
2018-11-13T07:54:55.774Z,16.77
2018-11-13T08:00:30.157Z,16.10
2018-11-13T08:03:11.664Z,19.50
2018-11-13T08:08:58.161Z,19.20
2018-11-13T08:11:41.729Z,17.47
2018-11-13T08:14:28.723Z,18.00
2018-11-13T08:17:12.564Z,21.03
2018-11-13T08:19:57.709Z,18.17
2018-11-13T08:22:41.456Z,18.13
2018-11-13T08:25:28.527Z,21.77
2018-11-13T08:28:15.706Z,18.90
2018-11-13T08:31:04.961Z,20.40
2018-11-13T08:33:57.878Z,23.77
2018-11-13T08:36:40.519Z,22.40
2018-11-13T08:39:31.562Z,20.57
2018-11-13T08:42:18.192Z,18.47
2018-11-13T08:45:07.022Z,18.87
2018-11-13T08:47:54.637Z,17.83
2018-11-13T08:50:45.106Z,23.47
2018-11-13T08:53:29.901Z,18.30
2018-11-13T08:56:20.429Z,24.20
2018-11-13T08:59:08.063Z,21.00
2018-11-13T09:01:53.600Z,19.47
2018-11-13T09:04:25.700Z,17.47
2018-11-13T09:07:11.941Z,16.03
2018-11-13T09:09:59.099Z,18.70
2018-11-13T09:12:46.249Z,17.10
2018-11-13T09:15:37.059Z,14.43
2018-11-13T09:18:28.343Z,16.13
2018-11-13T09:21:15.036Z,16.33
2018-11-13T09:24:03.711Z,13.77
2018-11-13T09:26:51.047Z,16.13
2018-11-13T09:29:40.024Z,15.33
2018-11-13T09:32:27.073Z,14.83
2018-11-13T09:35:13.760Z,14.60
2018-11-13T09:38:02.922Z,13.53
2018-11-13T09:40:49.356Z,20.07
2018-11-13T09:43:38.246Z,14.93
2018-11-13T09:46:24.510Z,15.37
2018-11-13T09:49:09.123Z,16.67
2018-11-13T09:51:55.479Z,15.47
2018-11-13T09:54:39.942Z,20.90
2018-11-13T09:57:28.336Z,14.60
2018-11-13T10:00:12.921Z,19.97
2018-11-13T10:03:02.248Z,13.10
2018-11-13T10:05:47.407Z,14.37
2018-11-13T10:08:35.856Z,12.63
2018-11-13T10:11:21.446Z,15.53
2018-11-13T10:14:19.240Z,12.03
2018-11-13T10:17:08.523Z,16.13
2018-11-13T10:19:58.902Z,14.00
2018-11-13T10:22:56.000Z,13.90
2018-11-13T10:25:45.654Z,13.37
2018-11-13T10:28:32.432Z,16.03
2018-11-13T10:31:20.151Z,12.27
2018-11-13T10:34:06.390Z,11.63
2018-11-13T10:37:01.012Z,12.43
2018-11-13T10:39:53.676Z,10.27
2018-11-13T10:42:43.748Z,15.17
2018-11-13T10:45:30.862Z,13.70
2018-11-13T10:48:13.384Z,12.63
2018-11-13T10:51:01.877Z,12.80
2018-11-13T10:53:53.890Z,16.30
2018-11-13T10:56:43.479Z,13.70
2018-11-13T10:59:24.053Z,14.57
2018-11-13T11:02:11.536Z,15.90
2018-11-13T11:04:41.529Z,17.80
2018-11-13T11:07:27.533Z,16.63
2018-11-13T11:10:15.853Z,13.93
2018-11-13T11:13:05.028Z,14.97
2018-11-13T11:15:56.312Z,11.70
2018-11-13T11:18:48.702Z,11.13
2018-11-13T11:21:33.472Z,15.47
2018-11-13T11:24:19.009Z,15.63
2018-11-13T11:27:05.661Z,11.33
2018-11-13T11:29:52.574Z,14.73
2018-11-13T11:32:39.398Z,12.57
2018-11-13T11:35:24.139Z,13.30
2018-11-13T11:38:10.339Z,11.97
2018-11-13T11:41:01.955Z,13.53
2018-11-13T11:43:51.134Z,13.50
2018-11-13T11:46:40.635Z,15.20
2018-11-13T11:49:27.155Z,14.40
2018-11-13T11:52:11.697Z,12.00
2018-11-13T11:55:01.937Z,12.80
2018-11-13T11:57:51.733Z,16.40
2018-11-13T12:00:43.838Z,14.20
2018-11-13T12:03:15.963Z,15.43
2018-11-13T12:06:04.759Z,13.83
2018-11-13T12:08:52.118Z,18.40
2018-11-13T12:11:41.319Z,14.43
2018-11-13T12:14:26.087Z,15.40
2018-11-13T12:17:15.932Z,17.07
2018-11-13T12:19:58.724Z,22.77
2018-11-13T12:22:30.622Z,24.53
2018-11-13T12:25:20.812Z,18.20
2018-11-13T12:28:08.935Z,16.87
2018-11-13T12:30:52.070Z,20.03
2018-11-13T12:33:37.864Z,16.87
2018-11-13T12:36:22.585Z,19.47
2018-11-13T12:39:11.598Z,19.80
2018-11-13T12:44:48.711Z,19.30
2018-11-13T12:47:35.075Z,22.60
2018-11-13T12:50:25.145Z,17.53
2018-11-13T12:53:20.612Z,19.03
2018-11-13T12:58:55.779Z,17.23
2018-11-13T13:01:44.544Z,17.80
2018-11-13T13:04:14.322Z,20.57
2018-11-13T13:07:03.255Z,20.13
2018-11-13T13:09:52.920Z,16.67
2018-11-13T13:12:41.443Z,20.23
2018-11-13T13:15:32.614Z,17.20
2018-11-13T13:18:20.180Z,14.03
2018-11-13T13:20:56.667Z,14.80
2018-11-13T13:26:33.407Z,16.80
2018-11-13T13:29:22.395Z,19.30
2018-11-13T13:34:57.060Z,16.33
2018-11-13T13:37:45.676Z,15.93
2018-11-13T13:40:38.270Z,17.70
2018-11-13T13:43:25.623Z,18.33
2018-11-13T13:46:16.554Z,13.00
2018-11-13T13:49:01.530Z,19.40
2018-11-13T13:51:49.764Z,16.03
2018-11-13T13:54:36.476Z,13.30
2018-11-13T13:57:26.628Z,15.77
2018-11-13T14:00:09.344Z,13.27
2018-11-13T14:02:57.940Z,15.47
2018-11-13T14:05:38.204Z,17.07
2018-11-13T14:08:32.162Z,14.53
2018-11-13T14:11:20.899Z,17.33
2018-11-13T14:14:04.836Z,16.17
2018-11-13T14:16:41.794Z,15.63
2018-11-13T14:19:29.617Z,14.23
2018-11-13T14:22:15.895Z,18.17
2018-11-13T14:25:02.698Z,18.63
2018-11-13T14:27:48.160Z,19.47
2018-11-13T14:30:39.363Z,19.23
2018-11-13T14:33:22.743Z,15.80
2018-11-13T14:36:10.820Z,14.00
2018-11-13T14:38:57.826Z,16.80
2018-11-13T14:41:47.787Z,14.40
2018-11-13T14:44:35.453Z,13.30
2018-11-13T14:47:13.893Z,17.77
2018-11-13T14:49:45.726Z,18.30
2018-11-13T14:52:29.284Z,14.70
2018-11-13T14:55:00.503Z,12.63
2018-11-13T14:57:43.003Z,16.90
2018-11-13T15:00:24.796Z,32.77
2018-11-13T15:03:08.756Z,17.20
2018-11-13T15:05:40.981Z,17.20
2018-11-13T15:08:28.463Z,14.17
2018-11-13T15:11:16.008Z,11.50
2018-11-13T15:14:04.817Z,15.13
2018-11-13T15:16:50.963Z,15.00
2018-11-13T15:19:34.863Z,11.93
2018-11-13T15:22:21.860Z,11.07
2018-11-13T15:25:13.886Z,15.73
2018-11-13T15:28:03.701Z,11.73
2018-11-13T15:30:56.963Z,10.83
2018-11-13T15:33:40.137Z,12.37
2018-11-13T15:36:25.124Z,13.07
2018-11-13T15:39:13.788Z,12.73
2018-11-13T15:42:09.075Z,10.70
2018-11-13T15:44:56.771Z,10.57
2018-11-13T15:47:48.310Z,8.90
2018-11-13T15:50:36.700Z,11.97
2018-11-13T15:53:25.960Z,11.73
2018-11-13T15:56:10.203Z,10.37
2018-11-13T15:59:00.092Z,12.27
2018-11-13T16:01:49.507Z,11.63
2018-11-13T16:04:22.028Z,13.30
2018-11-13T16:07:11.665Z,10.67
2018-11-13T16:09:58.669Z,11.33
2018-11-13T16:12:48.821Z,11.37
2018-11-13T16:15:37.184Z,8.73
2018-11-13T16:18:27.649Z,8.50
2018-11-13T16:24:05.856Z,11.07
2018-11-13T16:26:59.415Z,12.43
2018-11-13T16:29:47.021Z,12.00
2018-11-13T16:32:33.524Z,10.90
2018-11-13T16:35:20.312Z,10.53
2018-11-13T16:38:13.323Z,8.83
2018-11-13T16:41:02.253Z,13.37
2018-11-13T16:43:49.433Z,12.57
2018-11-13T16:46:34.453Z,12.40
2018-11-13T16:49:15.919Z,11.00
2018-11-13T16:52:06.130Z,10.90
2018-11-13T16:54:50.613Z,10.23
2018-11-13T16:57:34.187Z,12.67
2018-11-13T17:00:19.675Z,11.07
2018-11-13T17:02:59.611Z,9.40
2018-11-13T17:05:48.142Z,8.87
2018-11-13T17:08:36.573Z,8.93
2018-11-13T17:11:27.115Z,13.73
2018-11-13T17:14:10.210Z,12.23
2018-11-13T17:16:56.740Z,12.23
2018-11-13T17:19:27.974Z,10.90
2018-11-13T17:22:03.331Z,8.43
2018-11-13T17:24:42.160Z,8.87
2018-11-13T17:27:23.879Z,8.00
2018-11-13T17:30:08.759Z,7.97
2018-11-13T17:32:51.092Z,8.57
2018-11-13T17:35:25.599Z,8.87
2018-11-13T17:38:10.171Z,10.77
2018-11-13T17:40:50.784Z,8.97
2018-11-13T17:43:23.281Z,6.83
2018-11-13T17:45:59.359Z,6.87
2018-11-13T17:48:42.857Z,8.90
2018-11-13T17:51:20.618Z,8.77
2018-11-13T17:54:02.249Z,8.20
2018-11-13T17:56:40.057Z,6.70
2018-11-13T17:59:12.043Z,7.40
2018-11-13T18:01:47.825Z,10.13
2018-11-13T18:04:25.851Z,6.70
2018-11-13T18:07:01.378Z,8.70
2018-11-13T18:09:42.402Z,9.37
2018-11-13T18:12:21.203Z,8.00
2018-11-13T18:14:56.064Z,8.40
2018-11-13T18:17:35.914Z,10.33
2018-11-13T18:20:14.322Z,11.03
2018-11-13T18:23:00.582Z,8.50
2018-11-13T18:25:40.929Z,7.93
2018-11-13T18:28:27.261Z,6.33
2018-11-13T18:31:10.483Z,7.53
2018-11-13T18:33:54.950Z,7.03
2018-11-13T18:36:33.542Z,7.93
2018-11-13T18:39:18.723Z,8.80
2018-11-13T18:42:01.458Z,8.53
2018-11-13T18:44:41.493Z,7.47
2018-11-13T18:47:26.042Z,9.17
2018-11-13T18:50:03.787Z,7.33
2018-11-13T18:52:41.241Z,11.30
2018-11-13T18:55:21.342Z,10.50
2018-11-13T18:58:04.109Z,9.47
2018-11-13T19:00:51.921Z,7.83
2018-11-13T19:03:22.513Z,7.00
2018-11-13T19:05:57.774Z,7.47
2018-11-13T19:08:32.142Z,9.33
2018-11-13T19:11:04.636Z,9.73
2018-11-13T19:13:42.113Z,9.23
2018-11-13T19:16:13.701Z,10.07
2018-11-13T19:18:49.542Z,10.83
2018-11-13T19:21:20.921Z,9.40
2018-11-13T19:23:53.917Z,13.90
2018-11-13T19:26:29.526Z,11.23
2018-11-13T19:28:59.593Z,10.00
2018-11-13T19:31:35.429Z,10.57
2018-11-13T19:34:11.400Z,12.00
2018-11-13T19:36:44.488Z,10.17
2018-11-13T19:39:20.446Z,11.20
2018-11-13T19:41:50.901Z,10.77
2018-11-13T19:44:24.528Z,12.30
2018-11-13T19:47:00.722Z,8.03
2018-11-13T19:49:35.336Z,13.00
2018-11-13T19:52:11.562Z,12.37
2018-11-13T19:54:41.485Z,11.10
2018-11-13T19:57:21.006Z,9.03
2018-11-13T19:59:54.890Z,11.97
2018-11-13T20:02:26.676Z,10.60
2018-11-13T20:04:57.646Z,14.67
2018-11-13T20:07:29.432Z,11.10
2018-11-13T20:10:09.324Z,12.17
2018-11-13T20:12:47.504Z,12.10
2018-11-13T20:15:20.894Z,13.33
2018-11-13T20:17:57.000Z,10.37
2018-11-13T20:20:29.841Z,8.30
2018-11-13T20:23:08.392Z,9.33
2018-11-13T20:25:47.396Z,8.17
2018-11-13T20:28:25.074Z,9.73
2018-11-13T20:31:02.062Z,12.10
2018-11-13T20:33:37.499Z,16.60
2018-11-13T20:36:14.034Z,11.33
2018-11-13T20:38:47.398Z,9.40
2018-11-13T20:41:26.358Z,10.67
2018-11-13T20:44:01.126Z,10.13
2018-11-13T20:46:47.112Z,9.10
2018-11-13T20:49:28.324Z,9.20
2018-11-13T20:52:08.694Z,12.90
2018-11-13T20:54:50.380Z,9.90
2018-11-13T20:57:43.869Z,12.03
2018-11-13T21:00:38.540Z,10.03
2018-11-13T21:03:10.597Z,17.73
2018-11-13T21:06:00.026Z,14.43
2018-11-13T21:08:51.160Z,11.73
2018-11-13T21:11:35.033Z,11.23
2018-11-13T21:14:20.695Z,8.80
2018-11-13T21:17:03.256Z,8.87
2018-11-13T21:19:50.632Z,9.47
2018-11-13T21:22:36.002Z,10.00
2018-11-13T21:25:23.016Z,6.80
2018-11-13T21:28:09.965Z,6.27
2018-11-13T21:30:53.983Z,10.10
2018-11-13T21:33:36.104Z,7.53
2018-11-13T21:36:41.588Z,8.53
2018-11-13T21:39:26.455Z,7.53
2018-11-13T21:42:12.000Z,7.03
2018-11-13T21:44:58.358Z,8.47
2018-11-13T21:47:46.671Z,7.67
2018-11-13T21:50:30.729Z,7.97
2018-11-13T21:53:15.055Z,6.97
2018-11-13T21:56:02.843Z,8.87
2018-11-13T21:58:47.279Z,8.47
2018-11-13T22:01:39.176Z,9.20
2018-11-13T22:04:10.092Z,8.70
2018-11-13T22:06:46.277Z,8.27
2018-11-13T22:09:28.053Z,9.13
2018-11-13T22:12:17.875Z,6.10
2018-11-13T22:15:02.852Z,6.60
2018-11-13T22:17:48.119Z,8.13
2018-11-13T22:20:34.271Z,7.43
2018-11-13T22:23:18.179Z,7.50
2018-11-13T22:26:03.161Z,8.00
2018-11-13T22:28:47.872Z,13.73
2018-11-13T22:31:30.817Z,10.53
2018-11-13T22:34:19.094Z,9.57
2018-11-13T22:37:06.573Z,6.97
2018-11-13T22:39:56.309Z,7.43
2018-11-13T22:42:49.252Z,6.37
2018-11-13T22:45:38.967Z,7.50
2018-11-13T22:48:25.835Z,5.53
2018-11-13T22:51:12.177Z,7.63
2018-11-13T22:53:56.050Z,6.43
2018-11-13T22:56:38.324Z,5.70
2018-11-13T22:59:21.618Z,8.77
2018-11-13T23:02:10.850Z,5.63
2018-11-13T23:07:33.669Z,5.23
2018-11-13T23:10:19.605Z,5.07
2018-11-13T23:13:12.246Z,6.10
2018-11-13T23:15:58.938Z,5.60
2018-11-13T23:18:43.026Z,6.77
2018-11-13T23:21:29.567Z,3.97
2018-11-13T23:24:16.382Z,6.17
2018-11-13T23:27:03.195Z,5.80
2018-11-13T23:29:53.886Z,4.43
2018-11-13T23:32:39.304Z,5.70
2018-11-13T23:35:24.268Z,7.80
2018-11-13T23:38:21.769Z,5.50
2018-11-13T23:41:06.998Z,6.40
2018-11-13T23:43:48.195Z,6.10
2018-11-13T23:46:31.766Z,6.90
2018-11-13T23:49:18.768Z,6.00
2018-11-13T23:52:04.708Z,5.47
2018-11-13T23:54:49.277Z,7.07
2018-11-13T23:57:35.549Z,6.23
